sensor_id;sensor_type;location;lat;lon;timestamp;P1;durP1;ratioP1;P2;durP2;ratioP2
23866;SDS011;12114;53.404;-1.502;2023-05-01T00:02:16;23.92;;;15.32;;
23866;SDS011;12114;53.404;-1.502;2023-05-01T00:05:00;25.27;;;14.85;;
23866;SDS011;12114;53.404;-1.502;2023-05-01T00:07:45;22.85;;;14.50;;
23866;SDS011;12114;53.404;-1.502;2023-05-01T00:10:29;19.63;;;14.23;;
23866;SDS011;12114;53.404;-1.502;2023-05-01T00:13:14;16.95;;;13.13;;
23866;SDS011;12114;53.404;-1.502;2023-05-01T00:15:58;21.65;;;13.55;;
23866;SDS011;12114;53.404;-1.502;2023-05-01T00:18:42;19.23;;;14.07;;
23866;SDS011;12114;53.404;-1.502;2023-05-01T00:21:26;19.98;;;13.73;;
23866;SDS011;12114;53.404;-1.502;2023-05-01T00:24:11;20.25;;;13.50;;
23866;SDS011;12114;53.404;-1.502;2023-05-01T00:26:55;17.38;;;12.15;;
23866;SDS011;12114;53.404;-1.502;2023-05-01T00:29:39;12.98;;;6.97;;
23866;SDS011;12114;53.404;-1.502;2023-05-01T00:32:24;13.23;;;7.68;;
23866;SDS011;12114;53.404;-1.502;2023-05-01T00:35:08;12.00;;;7.30;;
23866;SDS011;12114;53.404;-1.502;2023-05-01T00:37:52;12.88;;;7.20;;
23866;SDS011;12114;53.404;-1.502;2023-05-01T00:40:43;14.40;;;7.05;;
23866;SDS011;12114;53.404;-1.502;2023-05-01T00:43:27;11.25;;;6.28;;
23866;SDS011;12114;53.404;-1.502;2023-05-01T00:46:11;11.75;;;6.95;;
23866;SDS011;12114;53.404;-1.502;2023-05-01T00:48:58;27.27;;;17.25;;
23866;SDS011;12114;53.404;-1.502;2023-05-01T00:51:42;18.55;;;12.25;;
23866;SDS011;12114;53.404;-1.502;2023-05-01T00:54:26;16.60;;;7.03;;
23866;SDS011;12114;53.404;-1.502;2023-05-01T00:57:10;11.82;;;5.75;;
23866;SDS011;12114;53.404;-1.502;2023-05-01T00:59:54;13.35;;;6.40;;
23866;SDS011;12114;53.404;-1.502;2023-05-01T01:02:38;12.00;;;5.60;;
23866;SDS011;12114;53.404;-1.502;2023-05-01T01:05:23;10.30;;;6.10;;
23866;SDS011;12114;53.404;-1.502;2023-05-01T01:14:02;8.70;;;5.55;;
23866;SDS011;12114;53.404;-1.502;2023-05-01T01:16:51;10.95;;;5.15;;
23866;SDS011;12114;53.404;-1.502;2023-05-01T01:22:22;13.43;;;5.20;;
23866;SDS011;12114;53.404;-1.502;2023-05-01T01:31:18;11.73;;;7.22;;
23866;SDS011;12114;53.404;-1.502;2023-05-01T01:37:16;15.95;;;7.90;;
23866;SDS011;12114;53.404;-1.502;2023-05-01T01:40:03;13.20;;;6.93;;
23866;SDS011;12114;53.404;-1.502;2023-05-01T01:42:55;14.93;;;7.30;;
23866;SDS011;12114;53.404;-1.502;2023-05-01T01:45:42;18.20;;;8.18;;
23866;SDS011;12114;53.404;-1.502;2023-05-01T01:48:30;14.18;;;7.63;;
23866;SDS011;12114;53.404;-1.502;2023-05-01T01:51:15;16.33;;;8.75;;
23866;SDS011;12114;53.404;-1.502;2023-05-01T01:54:00;14.40;;;8.40;;
23866;SDS011;12114;53.404;-1.502;2023-05-01T01:56:45;13.57;;;8.40;;
23866;SDS011;12114;53.404;-1.502;2023-05-01T01:59:31;15.07;;;8.60;;
23866;SDS011;12114;53.404;-1.502;2023-05-01T02:02:17;15.43;;;9.75;;
23866;SDS011;12114;53.404;-1.502;2023-05-01T02:05:02;16.02;;;10.25;;
23866;SDS011;12114;53.404;-1.502;2023-05-01T02:07:48;20.10;;;12.25;;
23866;SDS011;12114;53.404;-1.502;2023-05-01T02:10:32;26.67;;;15.20;;
23866;SDS011;12114;53.404;-1.502;2023-05-01T02:13:17;22.15;;;15.38;;
23866;SDS011;12114;53.404;-1.502;2023-05-01T02:16:03;25.00;;;14.65;;
23866;SDS011;12114;53.404;-1.502;2023-05-01T02:18:47;22.38;;;12.52;;
23866;SDS011;12114;53.404;-1.502;2023-05-01T02:21:33;20.07;;;12.57;;
23866;SDS011;12114;53.404;-1.502;2023-05-01T02:24:18;17.10;;;11.77;;
23866;SDS011;12114;53.404;-1.502;2023-05-01T02:27:18;17.63;;;12.48;;
23866;SDS011;12114;53.404;-1.502;2023-05-01T02:30:04;21.02;;;12.23;;
23866;SDS011;12114;53.404;-1.502;2023-05-01T02:32:48;23.85;;;13.23;;
23866;SDS011;12114;53.404;-1.502;2023-05-01T02:35:40;17.77;;;12.07;;
23866;SDS011;12114;53.404;-1.502;2023-05-01T02:38:24;24.70;;;12.80;;
23866;SDS011;12114;53.404;-1.502;2023-05-01T02:41:08;23.13;;;12.65;;
23866;SDS011;12114;53.404;-1.502;2023-05-01T02:43:55;24.35;;;12.35;;
23866;SDS011;12114;53.404;-1.502;2023-05-01T02:46:41;19.25;;;12.43;;
23866;SDS011;12114;53.404;-1.502;2023-05-01T02:49:26;22.52;;;11.75;;
23866;SDS011;12114;53.404;-1.502;2023-05-01T02:52:11;17.08;;;11.05;;
23866;SDS011;12114;53.404;-1.502;2023-05-01T02:54:55;15.80;;;10.65;;
23866;SDS011;12114;53.404;-1.502;2023-05-01T02:57:40;15.68;;;10.02;;
23866;SDS011;12114;53.404;-1.502;2023-05-01T03:00:24;22.05;;;11.35;;
23866;SDS011;12114;53.404;-1.502;2023-05-01T03:03:08;15.43;;;10.23;;
23866;SDS011;12114;53.404;-1.502;2023-05-01T03:05:52;19.40;;;10.38;;
23866;SDS011;12114;53.404;-1.502;2023-05-01T03:08:36;17.35;;;10.98;;
23866;SDS011;12114;53.404;-1.502;2023-05-01T03:11:20;16.17;;;10.82;;
23866;SDS011;12114;53.404;-1.502;2023-05-01T03:14:04;19.23;;;10.57;;
23866;SDS011;12114;53.404;-1.502;2023-05-01T03:16:49;21.13;;;11.50;;
23866;SDS011;12114;53.404;-1.502;2023-05-01T03:19:33;16.08;;;10.82;;
23866;SDS011;12114;53.404;-1.502;2023-05-01T03:22:17;15.00;;;10.68;;
23866;SDS011;12114;53.404;-1.502;2023-05-01T03:25:01;17.80;;;10.65;;
23866;SDS011;12114;53.404;-1.502;2023-05-01T03:27:46;15.25;;;10.10;;
23866;SDS011;12114;53.404;-1.502;2023-05-01T03:30:32;15.07;;;9.77;;
23866;SDS011;12114;53.404;-1.502;2023-05-01T03:33:16;15.75;;;9.30;;
23866;SDS011;12114;53.404;-1.502;2023-05-01T03:36:00;12.80;;;9.07;;
23866;SDS011;12114;53.404;-1.502;2023-05-01T03:38:46;16.15;;;9.20;;
23866;SDS011;12114;53.404;-1.502;2023-05-01T03:41:30;14.18;;;8.38;;
23866;SDS011;12114;53.404;-1.502;2023-05-01T03:44:14;15.52;;;9.20;;
23866;SDS011;12114;53.404;-1.502;2023-05-01T03:46:58;14.48;;;9.20;;
23866;SDS011;12114;53.404;-1.502;2023-05-01T03:49:42;14.10;;;9.75;;
23866;SDS011;12114;53.404;-1.502;2023-05-01T03:52:26;22.15;;;11.75;;
23866;SDS011;12114;53.404;-1.502;2023-05-01T03:55:10;16.48;;;11.73;;
23866;SDS011;12114;53.404;-1.502;2023-05-01T03:57:54;20.48;;;11.98;;
23866;SDS011;12114;53.404;-1.502;2023-05-01T04:00:38;17.83;;;12.05;;
23866;SDS011;12114;53.404;-1.502;2023-05-01T04:03:22;21.80;;;12.02;;
23866;SDS011;12114;53.404;-1.502;2023-05-01T04:06:06;19.90;;;12.52;;
23866;SDS011;12114;53.404;-1.502;2023-05-01T04:08:50;20.10;;;12.07;;
23866;SDS011;12114;53.404;-1.502;2023-05-01T04:11:34;21.80;;;11.68;;
23866;SDS011;12114;53.404;-1.502;2023-05-01T04:14:18;16.50;;;10.60;;
23866;SDS011;12114;53.404;-1.502;2023-05-01T04:17:02;14.20;;;9.18;;
23866;SDS011;12114;53.404;-1.502;2023-05-01T04:19:46;14.35;;;9.27;;
23866;SDS011;12114;53.404;-1.502;2023-05-01T04:22:30;13.20;;;8.35;;
23866;SDS011;12114;53.404;-1.502;2023-05-01T04:25:14;11.60;;;8.48;;
23866;SDS011;12114;53.404;-1.502;2023-05-01T04:27:58;11.65;;;8.82;;
23866;SDS011;12114;53.404;-1.502;2023-05-01T04:30:42;13.65;;;8.32;;
23866;SDS011;12114;53.404;-1.502;2023-05-01T04:33:26;11.52;;;7.20;;
23866;SDS011;12114;53.404;-1.502;2023-05-01T04:36:10;11.80;;;7.47;;
23866;SDS011;12114;53.404;-1.502;2023-05-01T04:38:55;12.50;;;8.88;;
23866;SDS011;12114;53.404;-1.502;2023-05-01T04:41:39;15.25;;;8.82;;
23866;SDS011;12114;53.404;-1.502;2023-05-01T04:44:23;13.93;;;8.32;;
23866;SDS011;12114;53.404;-1.502;2023-05-01T04:47:07;11.50;;;7.60;;
23866;SDS011;12114;53.404;-1.502;2023-05-01T04:49:51;13.35;;;7.47;;
23866;SDS011;12114;53.404;-1.502;2023-05-01T04:52:35;8.95;;;6.45;;
23866;SDS011;12114;53.404;-1.502;2023-05-01T04:55:19;11.18;;;6.90;;
23866;SDS011;12114;53.404;-1.502;2023-05-01T04:58:03;10.63;;;6.85;;
23866;SDS011;12114;53.404;-1.502;2023-05-01T05:00:47;12.57;;;7.38;;
23866;SDS011;12114;53.404;-1.502;2023-05-01T05:03:32;10.73;;;6.13;;
23866;SDS011;12114;53.404;-1.502;2023-05-01T05:06:16;13.18;;;6.57;;
23866;SDS011;12114;53.404;-1.502;2023-05-01T05:09:00;9.00;;;6.70;;
23866;SDS011;12114;53.404;-1.502;2023-05-01T05:11:44;10.52;;;7.18;;
23866;SDS011;12114;53.404;-1.502;2023-05-01T05:14:28;12.23;;;6.38;;
23866;SDS011;12114;53.404;-1.502;2023-05-01T05:17:12;11.43;;;6.88;;
23866;SDS011;12114;53.404;-1.502;2023-05-01T05:19:56;10.80;;;6.32;;
23866;SDS011;12114;53.404;-1.502;2023-05-01T05:22:39;10.80;;;6.68;;
23866;SDS011;12114;53.404;-1.502;2023-05-01T05:25:23;11.30;;;6.32;;
23866;SDS011;12114;53.404;-1.502;2023-05-01T05:28:07;8.88;;;5.82;;
23866;SDS011;12114;53.404;-1.502;2023-05-01T05:30:51;12.73;;;7.10;;
23866;SDS011;12114;53.404;-1.502;2023-05-01T05:33:35;10.68;;;6.15;;
23866;SDS011;12114;53.404;-1.502;2023-05-01T05:36:19;10.30;;;6.13;;
23866;SDS011;12114;53.404;-1.502;2023-05-01T05:39:03;9.85;;;5.75;;
23866;SDS011;12114;53.404;-1.502;2023-05-01T05:41:47;10.65;;;6.20;;
23866;SDS011;12114;53.404;-1.502;2023-05-01T05:44:31;11.07;;;5.63;;
23866;SDS011;12114;53.404;-1.502;2023-05-01T05:47:18;11.30;;;6.22;;
23866;SDS011;12114;53.404;-1.502;2023-05-01T05:50:02;9.60;;;5.47;;
23866;SDS011;12114;53.404;-1.502;2023-05-01T05:52:46;10.40;;;6.25;;
23866;SDS011;12114;53.404;-1.502;2023-05-01T05:55:30;10.82;;;6.53;;
23866;SDS011;12114;53.404;-1.502;2023-05-01T05:58:14;9.88;;;7.00;;
23866;SDS011;12114;53.404;-1.502;2023-05-01T06:01:05;13.75;;;6.90;;
23866;SDS011;12114;53.404;-1.502;2023-05-01T06:03:51;10.93;;;7.32;;
23866;SDS011;12114;53.404;-1.502;2023-05-01T06:06:35;10.63;;;7.07;;
23866;SDS011;12114;53.404;-1.502;2023-05-01T06:09:19;13.40;;;7.43;;
23866;SDS011;12114;53.404;-1.502;2023-05-01T06:12:04;11.82;;;7.32;;
23866;SDS011;12114;53.404;-1.502;2023-05-01T06:14:48;11.27;;;7.00;;
23866;SDS011;12114;53.404;-1.502;2023-05-01T06:17:32;7.65;;;6.72;;
23866;SDS011;12114;53.404;-1.502;2023-05-01T06:20:18;11.93;;;6.77;;
23866;SDS011;12114;53.404;-1.502;2023-05-01T06:23:02;9.55;;;6.63;;
23866;SDS011;12114;53.404;-1.502;2023-05-01T06:25:46;10.38;;;6.65;;
23866;SDS011;12114;53.404;-1.502;2023-05-01T06:28:31;11.27;;;5.90;;
23866;SDS011;12114;53.404;-1.502;2023-05-01T06:31:15;7.63;;;4.95;;
23866;SDS011;12114;53.404;-1.502;2023-05-01T06:33:59;8.98;;;5.30;;
23866;SDS011;12114;53.404;-1.502;2023-05-01T06:36:43;7.65;;;4.55;;
23866;SDS011;12114;53.404;-1.502;2023-05-01T06:39:27;6.15;;;4.25;;
23866;SDS011;12114;53.404;-1.502;2023-05-01T06:42:11;6.78;;;4.85;;
23866;SDS011;12114;53.404;-1.502;2023-05-01T06:44:58;8.25;;;4.47;;
23866;SDS011;12114;53.404;-1.502;2023-05-01T06:47:42;6.30;;;4.20;;
23866;SDS011;12114;53.404;-1.502;2023-05-01T06:50:26;6.45;;;3.50;;
23866;SDS011;12114;53.404;-1.502;2023-05-01T06:53:11;5.63;;;2.90;;
23866;SDS011;12114;53.404;-1.502;2023-05-01T06:55:55;4.47;;;2.45;;
23866;SDS011;12114;53.404;-1.502;2023-05-01T06:58:39;4.70;;;2.28;;
23866;SDS011;12114;53.404;-1.502;2023-05-01T07:01:23;6.38;;;2.97;;
23866;SDS011;12114;53.404;-1.502;2023-05-01T07:04:07;4.40;;;2.40;;
23866;SDS011;12114;53.404;-1.502;2023-05-01T07:06:51;4.85;;;2.30;;
23866;SDS011;12114;53.404;-1.502;2023-05-01T07:09:43;5.10;;;2.80;;
23866;SDS011;12114;53.404;-1.502;2023-05-01T07:12:27;4.60;;;2.35;;
23866;SDS011;12114;53.404;-1.502;2023-05-01T07:15:12;4.73;;;2.00;;
23866;SDS011;12114;53.404;-1.502;2023-05-01T07:17:59;3.03;;;1.98;;
23866;SDS011;12114;53.404;-1.502;2023-05-01T07:20:45;6.53;;;1.95;;
23866;SDS011;12114;53.404;-1.502;2023-05-01T07:23:29;6.15;;;2.15;;
23866;SDS011;12114;53.404;-1.502;2023-05-01T07:26:13;2.95;;;2.10;;
23866;SDS011;12114;53.404;-1.502;2023-05-01T07:28:57;5.40;;;1.90;;
23866;SDS011;12114;53.404;-1.502;2023-05-01T07:31:41;4.45;;;1.98;;
23866;SDS011;12114;53.404;-1.502;2023-05-01T07:34:25;5.47;;;2.42;;
23866;SDS011;12114;53.404;-1.502;2023-05-01T07:37:12;4.47;;;1.92;;
23866;SDS011;12114;53.404;-1.502;2023-05-01T07:39:56;6.07;;;2.17;;
23866;SDS011;12114;53.404;-1.502;2023-05-01T07:42:41;4.50;;;2.13;;
23866;SDS011;12114;53.404;-1.502;2023-05-01T07:45:25;3.33;;;2.05;;
23866;SDS011;12114;53.404;-1.502;2023-05-01T07:48:09;3.83;;;1.88;;
23866;SDS011;12114;53.404;-1.502;2023-05-01T07:50:53;4.72;;;1.83;;
23866;SDS011;12114;53.404;-1.502;2023-05-01T07:53:38;2.92;;;1.60;;
23866;SDS011;12114;53.404;-1.502;2023-05-01T07:56:23;4.85;;;1.90;;
23866;SDS011;12114;53.404;-1.502;2023-05-01T07:59:07;6.07;;;2.03;;
23866;SDS011;12114;53.404;-1.502;2023-05-01T08:01:51;3.70;;;1.85;;
23866;SDS011;12114;53.404;-1.502;2023-05-01T08:04:35;4.47;;;1.70;;
23866;SDS011;12114;53.404;-1.502;2023-05-01T08:07:25;3.50;;;1.75;;
23866;SDS011;12114;53.404;-1.502;2023-05-01T08:10:09;3.75;;;1.38;;
23866;SDS011;12114;53.404;-1.502;2023-05-01T08:12:53;4.65;;;1.38;;
23866;SDS011;12114;53.404;-1.502;2023-05-01T08:15:38;3.05;;;1.23;;
23866;SDS011;12114;53.404;-1.502;2023-05-01T08:18:25;3.38;;;1.60;;
23866;SDS011;12114;53.404;-1.502;2023-05-01T08:21:09;3.35;;;1.45;;
23866;SDS011;12114;53.404;-1.502;2023-05-01T08:23:54;3.10;;;1.50;;
23866;SDS011;12114;53.404;-1.502;2023-05-01T08:26:38;4.32;;;1.27;;
23866;SDS011;12114;53.404;-1.502;2023-05-01T08:29:22;3.50;;;1.10;;
23866;SDS011;12114;53.404;-1.502;2023-05-01T08:32:06;3.47;;;1.00;;
23866;SDS011;12114;53.404;-1.502;2023-05-01T08:34:50;2.80;;;0.90;;
23866;SDS011;12114;53.404;-1.502;2023-05-01T08:37:34;0.73;;;0.70;;
23866;SDS011;12114;53.404;-1.502;2023-05-01T08:40:18;2.33;;;1.05;;
23866;SDS011;12114;53.404;-1.502;2023-05-01T08:43:02;3.53;;;1.20;;
23866;SDS011;12114;53.404;-1.502;2023-05-01T08:45:46;2.80;;;0.80;;
23866;SDS011;12114;53.404;-1.502;2023-05-01T08:48:31;2.40;;;1.25;;
23866;SDS011;12114;53.404;-1.502;2023-05-01T08:51:18;2.58;;;1.13;;
23866;SDS011;12114;53.404;-1.502;2023-05-01T08:54:06;2.15;;;0.90;;
23866;SDS011;12114;53.404;-1.502;2023-05-01T08:56:51;5.13;;;1.00;;
23866;SDS011;12114;53.404;-1.502;2023-05-01T08:59:36;3.15;;;1.20;;
23866;SDS011;12114;53.404;-1.502;2023-05-01T09:02:20;2.15;;;0.82;;
23866;SDS011;12114;53.404;-1.502;2023-05-01T09:05:06;3.05;;;0.73;;
23866;SDS011;12114;53.404;-1.502;2023-05-01T09:07:50;1.83;;;0.98;;
23866;SDS011;12114;53.404;-1.502;2023-05-01T09:10:38;2.55;;;0.75;;
23866;SDS011;12114;53.404;-1.502;2023-05-01T09:13:24;2.05;;;0.93;;
23866;SDS011;12114;53.404;-1.502;2023-05-01T09:16:09;1.98;;;0.90;;
23866;SDS011;12114;53.404;-1.502;2023-05-01T09:21:39;2.38;;;0.88;;
23866;SDS011;12114;53.404;-1.502;2023-05-01T09:24:23;2.00;;;0.90;;
23866;SDS011;12114;53.404;-1.502;2023-05-01T09:27:08;3.27;;;0.90;;
23866;SDS011;12114;53.404;-1.502;2023-05-01T09:29:52;2.90;;;0.95;;
23866;SDS011;12114;53.404;-1.502;2023-05-01T09:32:36;5.63;;;1.20;;
23866;SDS011;12114;53.404;-1.502;2023-05-01T09:35:20;3.15;;;0.98;;
23866;SDS011;12114;53.404;-1.502;2023-05-01T09:38:04;2.03;;;0.77;;
23866;SDS011;12114;53.404;-1.502;2023-05-01T09:40:48;3.30;;;0.93;;
23866;SDS011;12114;53.404;-1.502;2023-05-01T09:43:32;1.42;;;0.77;;
23866;SDS011;12114;53.404;-1.502;2023-05-01T09:46:17;2.28;;;0.82;;
23866;SDS011;12114;53.404;-1.502;2023-05-01T09:49:00;2.03;;;0.75;;
23866;SDS011;12114;53.404;-1.502;2023-05-01T09:51:45;3.93;;;0.80;;
23866;SDS011;12114;53.404;-1.502;2023-05-01T09:54:30;4.32;;;1.08;;
23866;SDS011;12114;53.404;-1.502;2023-05-01T09:57:14;3.13;;;1.70;;
23866;SDS011;12114;53.404;-1.502;2023-05-01T10:00:02;3.22;;;1.90;;
23866;SDS011;12114;53.404;-1.502;2023-05-01T10:02:50;6.00;;;3.33;;
23866;SDS011;12114;53.404;-1.502;2023-05-01T10:05:41;8.63;;;3.67;;
23866;SDS011;12114;53.404;-1.502;2023-05-01T10:08:26;11.75;;;5.97;;
23866;SDS011;12114;53.404;-1.502;2023-05-01T10:11:10;9.15;;;4.15;;
23866;SDS011;12114;53.404;-1.502;2023-05-01T10:14:04;3.15;;;0.70;;
23866;SDS011;12114;53.404;-1.502;2023-05-01T10:16:49;2.50;;;1.13;;
23866;SDS011;12114;53.404;-1.502;2023-05-01T10:19:35;3.92;;;1.30;;
23866;SDS011;12114;53.404;-1.502;2023-05-01T10:22:19;3.38;;;0.90;;
23866;SDS011;12114;53.404;-1.502;2023-05-01T10:25:03;3.28;;;0.60;;
23866;SDS011;12114;53.404;-1.502;2023-05-01T10:27:50;3.45;;;0.80;;
23866;SDS011;12114;53.404;-1.502;2023-05-01T10:30:35;1.13;;;0.82;;
23866;SDS011;12114;53.404;-1.502;2023-05-01T10:33:23;1.77;;;0.80;;
23866;SDS011;12114;53.404;-1.502;2023-05-01T10:36:22;1.55;;;0.60;;
23866;SDS011;12114;53.404;-1.502;2023-05-01T10:39:18;2.95;;;0.50;;
23866;SDS011;12114;53.404;-1.502;2023-05-01T10:42:11;1.00;;;0.40;;
23866;SDS011;12114;53.404;-1.502;2023-05-01T10:45:17;1.58;;;0.50;;
23866;SDS011;12114;53.404;-1.502;2023-05-01T10:48:01;1.55;;;0.52;;
23866;SDS011;12114;53.404;-1.502;2023-05-01T10:53:48;2.83;;;0.70;;
23866;SDS011;12114;53.404;-1.502;2023-05-01T10:59:16;1.55;;;0.60;;
23866;SDS011;12114;53.404;-1.502;2023-05-01T11:02:00;3.17;;;0.82;;
23866;SDS011;12114;53.404;-1.502;2023-05-01T11:05:03;2.15;;;0.70;;
23866;SDS011;12114;53.404;-1.502;2023-05-01T11:07:49;2.35;;;0.95;;
23866;SDS011;12114;53.404;-1.502;2023-05-01T11:10:51;1.02;;;0.60;;
23866;SDS011;12114;53.404;-1.502;2023-05-01T11:13:53;2.10;;;0.90;;
23866;SDS011;12114;53.404;-1.502;2023-05-01T11:22:11;2.05;;;0.70;;
23866;SDS011;12114;53.404;-1.502;2023-05-01T11:24:56;2.08;;;0.60;;
23866;SDS011;12114;53.404;-1.502;2023-05-01T11:27:40;2.05;;;0.60;;
23866;SDS011;12114;53.404;-1.502;2023-05-01T11:30:38;1.10;;;0.40;;
23866;SDS011;12114;53.404;-1.502;2023-05-01T11:33:22;0.80;;;0.30;;
23866;SDS011;12114;53.404;-1.502;2023-05-01T11:36:08;0.40;;;0.30;;
23866;SDS011;12114;53.404;-1.502;2023-05-01T11:38:56;2.05;;;0.45;;
23866;SDS011;12114;53.404;-1.502;2023-05-01T11:41:41;2.65;;;0.30;;
23866;SDS011;12114;53.404;-1.502;2023-05-01T11:44:25;1.52;;;0.50;;
23866;SDS011;12114;53.404;-1.502;2023-05-01T11:47:09;2.08;;;0.40;;
23866;SDS011;12114;53.404;-1.502;2023-05-01T11:49:53;1.67;;;0.40;;
23866;SDS011;12114;53.404;-1.502;2023-05-01T11:52:44;0.88;;;0.30;;
23866;SDS011;12114;53.404;-1.502;2023-05-01T11:55:32;1.90;;;0.50;;
23866;SDS011;12114;53.404;-1.502;2023-05-01T11:58:16;1.00;;;0.35;;
23866;SDS011;12114;53.404;-1.502;2023-05-01T12:01:00;1.90;;;0.40;;
23866;SDS011;12114;53.404;-1.502;2023-05-01T12:03:44;2.25;;;0.50;;
23866;SDS011;12114;53.404;-1.502;2023-05-01T12:07:02;1.45;;;0.40;;
23866;SDS011;12114;53.404;-1.502;2023-05-01T12:09:43;1.27;;;0.40;;
23866;SDS011;12114;53.404;-1.502;2023-05-01T12:12:27;2.22;;;0.50;;
23866;SDS011;12114;53.404;-1.502;2023-05-01T12:15:11;1.77;;;0.55;;
23866;SDS011;12114;53.404;-1.502;2023-05-01T12:17:55;1.75;;;0.57;;
23866;SDS011;12114;53.404;-1.502;2023-05-01T12:20:43;0.80;;;0.40;;
23866;SDS011;12114;53.404;-1.502;2023-05-01T12:23:32;2.05;;;0.60;;
23866;SDS011;12114;53.404;-1.502;2023-05-01T12:29:02;1.92;;;0.40;;
23866;SDS011;12114;53.404;-1.502;2023-05-01T12:31:47;2.40;;;0.47;;
23866;SDS011;12114;53.404;-1.502;2023-05-01T12:34:35;3.28;;;0.60;;
23866;SDS011;12114;53.404;-1.502;2023-05-01T12:37:19;2.05;;;0.50;;
23866;SDS011;12114;53.404;-1.502;2023-05-01T12:40:03;3.88;;;1.25;;
23866;SDS011;12114;53.404;-1.502;2023-05-01T12:42:55;1.90;;;0.50;;
23866;SDS011;12114;53.404;-1.502;2023-05-01T12:45:40;1.13;;;0.40;;
23866;SDS011;12114;53.404;-1.502;2023-05-01T12:48:24;2.03;;;0.50;;
23866;SDS011;12114;53.404;-1.502;2023-05-01T12:51:08;1.60;;;0.30;;
23866;SDS011;12114;53.404;-1.502;2023-05-01T12:53:51;1.08;;;0.40;;
23866;SDS011;12114;53.404;-1.502;2023-05-01T12:56:39;2.53;;;0.77;;
23866;SDS011;12114;53.404;-1.502;2023-05-01T12:59:25;2.08;;;0.65;;
23866;SDS011;12114;53.404;-1.502;2023-05-01T13:02:13;8.77;;;5.13;;
23866;SDS011;12114;53.404;-1.502;2023-05-01T13:05:09;3.33;;;0.63;;
23866;SDS011;12114;53.404;-1.502;2023-05-01T13:07:55;3.25;;;1.02;;
23866;SDS011;12114;53.404;-1.502;2023-05-01T13:10:39;2.55;;;0.52;;
23866;SDS011;12114;53.404;-1.502;2023-05-01T13:13:24;1.17;;;0.90;;
23866;SDS011;12114;53.404;-1.502;2023-05-01T13:18:54;1.83;;;1.42;;
23866;SDS011;12114;53.404;-1.502;2023-05-01T13:21:45;3.60;;;2.10;;
23866;SDS011;12114;53.404;-1.502;2023-05-01T13:24:38;2.00;;;0.60;;
23866;SDS011;12114;53.404;-1.502;2023-05-01T13:27:22;2.53;;;0.90;;
23866;SDS011;12114;53.404;-1.502;2023-05-01T13:30:06;1.65;;;1.10;;
23866;SDS011;12114;53.404;-1.502;2023-05-01T13:32:50;2.75;;;0.70;;
23866;SDS011;12114;53.404;-1.502;2023-05-01T13:35:34;4.38;;;0.80;;
23866;SDS011;12114;53.404;-1.502;2023-05-01T13:38:18;1.08;;;0.77;;
23866;SDS011;12114;53.404;-1.502;2023-05-01T13:41:06;1.38;;;1.00;;
23866;SDS011;12114;53.404;-1.502;2023-05-01T13:43:51;3.00;;;2.70;;
23866;SDS011;12114;53.404;-1.502;2023-05-01T13:46:35;3.47;;;1.55;;
23866;SDS011;12114;53.404;-1.502;2023-05-01T13:49:19;2.28;;;0.80;;
23866;SDS011;12114;53.404;-1.502;2023-05-01T13:52:06;3.28;;;1.63;;
23866;SDS011;12114;53.404;-1.502;2023-05-01T13:54:50;2.28;;;0.50;;
23866;SDS011;12114;53.404;-1.502;2023-05-01T13:57:38;1.75;;;0.95;;
23866;SDS011;12114;53.404;-1.502;2023-05-01T14:00:24;1.25;;;0.57;;
23866;SDS011;12114;53.404;-1.502;2023-05-01T14:03:09;1.13;;;0.60;;
23866;SDS011;12114;53.404;-1.502;2023-05-01T14:05:53;1.55;;;0.70;;
23866;SDS011;12114;53.404;-1.502;2023-05-01T14:08:37;1.27;;;0.60;;
23866;SDS011;12114;53.404;-1.502;2023-05-01T14:11:21;4.00;;;2.10;;
23866;SDS011;12114;53.404;-1.502;2023-05-01T14:14:05;2.78;;;1.20;;
23866;SDS011;12114;53.404;-1.502;2023-05-01T14:16:50;1.25;;;0.65;;
23866;SDS011;12114;53.404;-1.502;2023-05-01T14:19:34;1.38;;;0.98;;
23866;SDS011;12114;53.404;-1.502;2023-05-01T14:22:19;2.28;;;0.95;;
23866;SDS011;12114;53.404;-1.502;2023-05-01T14:25:04;6.80;;;5.57;;
23866;SDS011;12114;53.404;-1.502;2023-05-01T14:27:48;2.42;;;0.93;;
23866;SDS011;12114;53.404;-1.502;2023-05-01T14:30:34;3.60;;;2.35;;
23866;SDS011;12114;53.404;-1.502;2023-05-01T14:33:19;2.70;;;0.70;;
23866;SDS011;12114;53.404;-1.502;2023-05-01T14:36:03;2.80;;;0.60;;
23866;SDS011;12114;53.404;-1.502;2023-05-01T14:38:48;40.10;;;25.95;;
23866;SDS011;12114;53.404;-1.502;2023-05-01T14:41:33;5.15;;;3.22;;
23866;SDS011;12114;53.404;-1.502;2023-05-01T14:44:21;2.53;;;0.80;;
23866;SDS011;12114;53.404;-1.502;2023-05-01T14:47:07;1.00;;;0.60;;
23866;SDS011;12114;53.404;-1.502;2023-05-01T14:49:51;1.15;;;0.60;;
23866;SDS011;12114;53.404;-1.502;2023-05-01T14:52:36;1.47;;;0.80;;
23866;SDS011;12114;53.404;-1.502;2023-05-01T14:55:28;1.67;;;0.60;;
23866;SDS011;12114;53.404;-1.502;2023-05-01T14:58:14;1.05;;;0.30;;
23866;SDS011;12114;53.404;-1.502;2023-05-01T15:00:58;0.95;;;0.30;;
23866;SDS011;12114;53.404;-1.502;2023-05-01T15:03:42;4.88;;;3.75;;
23866;SDS011;12114;53.404;-1.502;2023-05-01T15:06:26;0.98;;;0.63;;
23866;SDS011;12114;53.404;-1.502;2023-05-01T15:09:10;2.35;;;1.30;;
23866;SDS011;12114;53.404;-1.502;2023-05-01T15:11:55;2.08;;;1.02;;
23866;SDS011;12114;53.404;-1.502;2023-05-01T15:14:39;1.35;;;1.08;;
23866;SDS011;12114;53.404;-1.502;2023-05-01T15:17:23;0.60;;;0.40;;
23866;SDS011;12114;53.404;-1.502;2023-05-01T15:20:07;1.85;;;0.40;;
23866;SDS011;12114;53.404;-1.502;2023-05-01T15:22:52;1.07;;;0.50;;
23866;SDS011;12114;53.404;-1.502;2023-05-01T15:25:37;1.02;;;0.40;;
23866;SDS011;12114;53.404;-1.502;2023-05-01T15:28:21;0.77;;;0.40;;
23866;SDS011;12114;53.404;-1.502;2023-05-01T15:31:06;1.23;;;0.50;;
23866;SDS011;12114;53.404;-1.502;2023-05-01T15:33:50;0.60;;;0.40;;
23866;SDS011;12114;53.404;-1.502;2023-05-01T15:36:34;1.42;;;0.40;;
23866;SDS011;12114;53.404;-1.502;2023-05-01T15:39:19;1.30;;;0.50;;
23866;SDS011;12114;53.404;-1.502;2023-05-01T15:42:02;1.00;;;0.35;;
23866;SDS011;12114;53.404;-1.502;2023-05-01T15:44:49;0.50;;;0.30;;
23866;SDS011;12114;53.404;-1.502;2023-05-01T15:47:33;1.70;;;0.30;;
23866;SDS011;12114;53.404;-1.502;2023-05-01T15:50:17;2.03;;;0.50;;
23866;SDS011;12114;53.404;-1.502;2023-05-01T15:53:01;2.13;;;0.50;;
23866;SDS011;12114;53.404;-1.502;2023-05-01T15:55:45;1.77;;;0.25;;
23866;SDS011;12114;53.404;-1.502;2023-05-01T15:58:29;1.15;;;0.47;;
23866;SDS011;12114;53.404;-1.502;2023-05-01T16:01:13;1.23;;;0.50;;
23866;SDS011;12114;53.404;-1.502;2023-05-01T16:03:58;1.07;;;0.30;;
23866;SDS011;12114;53.404;-1.502;2023-05-01T16:06:42;0.65;;;0.30;;
23866;SDS011;12114;53.404;-1.502;2023-05-01T16:09:28;0.57;;;0.32;;
23866;SDS011;12114;53.404;-1.502;2023-05-01T16:12:13;1.38;;;0.47;;
23866;SDS011;12114;53.404;-1.502;2023-05-01T16:14:59;0.98;;;0.40;;
23866;SDS011;12114;53.404;-1.502;2023-05-01T16:17:44;2.03;;;0.82;;
23866;SDS011;12114;53.404;-1.502;2023-05-01T16:20:29;1.65;;;0.95;;
23866;SDS011;12114;53.404;-1.502;2023-05-01T16:23:16;2.90;;;1.30;;
23866;SDS011;12114;53.404;-1.502;2023-05-01T16:26:00;1.20;;;0.60;;
23866;SDS011;12114;53.404;-1.502;2023-05-01T16:28:44;1.00;;;0.40;;
23866;SDS011;12114;53.404;-1.502;2023-05-01T16:31:31;2.72;;;1.27;;
23866;SDS011;12114;53.404;-1.502;2023-05-01T16:34:17;2.15;;;1.00;;
23866;SDS011;12114;53.404;-1.502;2023-05-01T16:37:04;3.45;;;1.40;;
23866;SDS011;12114;53.404;-1.502;2023-05-01T16:39:48;2.72;;;1.15;;
23866;SDS011;12114;53.404;-1.502;2023-05-01T16:42:32;4.63;;;1.80;;
23866;SDS011;12114;53.404;-1.502;2023-05-01T16:45:17;2.65;;;1.00;;
23866;SDS011;12114;53.404;-1.502;2023-05-01T16:48:00;1.75;;;0.90;;
23866;SDS011;12114;53.404;-1.502;2023-05-01T16:50:44;1.65;;;0.70;;
23866;SDS011;12114;53.404;-1.502;2023-05-01T16:53:28;2.85;;;1.23;;